createdAt,value
2019-05-20T00:02:23.174Z,6.60
2019-05-20T00:07:00.085Z,6.68
2019-05-20T00:11:53.645Z,7.30
2019-05-20T00:16:41.921Z,7.17
2019-05-20T00:21:32.819Z,6.47
2019-05-20T00:26:23.786Z,7.67
2019-05-20T00:31:15.441Z,8.30
2019-05-20T00:36:06.350Z,6.90
2019-05-20T00:40:57.991Z,8.23
2019-05-20T00:45:49.636Z,7.78
2019-05-20T00:50:40.534Z,8.20
2019-05-20T00:55:32.174Z,8.70
2019-05-20T01:00:23.857Z,8.20
2019-05-20T01:05:14.757Z,8.80
2019-05-20T01:10:05.700Z,7.97
2019-05-20T01:14:56.609Z,8.30
2019-05-20T01:19:47.509Z,9.60
2019-05-20T01:24:38.425Z,7.67
2019-05-20T01:29:29.334Z,8.47
2019-05-20T01:34:20.231Z,9.07
2019-05-20T01:39:11.875Z,8.80
2019-05-20T01:44:03.514Z,8.00
2019-05-20T01:48:54.431Z,8.90
2019-05-20T01:53:46.073Z,8.33
2019-05-20T01:58:39.532Z,8.37
2019-05-20T02:03:32.088Z,8.20
2019-05-20T02:08:19.618Z,9.10
2019-05-20T02:13:10.537Z,8.70
2019-05-20T02:18:01.470Z,9.07
2019-05-20T02:22:53.168Z,8.43
2019-05-20T02:27:44.072Z,9.83
2019-05-20T02:32:35.011Z,9.30
2019-05-20T02:37:25.925Z,9.90
2019-05-20T02:42:16.844Z,8.83
2019-05-20T02:47:07.761Z,9.20
2019-05-20T02:51:58.675Z,9.10
2019-05-20T02:56:49.578Z,8.27
2019-05-20T03:01:40.480Z,8.93
2019-05-20T03:06:31.419Z,8.90
2019-05-20T03:11:22.347Z,9.35
2019-05-20T03:16:15.585Z,9.70
2019-05-20T03:21:04.200Z,8.77
2019-05-20T03:25:55.129Z,9.43
2019-05-20T03:30:46.046Z,9.90
2019-05-20T03:35:36.960Z,9.83
2019-05-20T03:40:27.877Z,9.80
2019-05-20T03:45:18.783Z,9.30
2019-05-20T03:50:09.682Z,9.85
2019-05-20T03:55:00.595Z,9.27
2019-05-20T03:59:51.563Z,9.57
2019-05-20T04:05:00.259Z,9.07
2019-05-20T04:09:34.178Z,9.70
2019-05-20T04:14:25.080Z,10.67
2019-05-20T04:19:16.005Z,10.50
2019-05-20T04:24:06.924Z,10.43
2019-05-20T04:28:57.831Z,9.23
2019-05-20T04:33:48.741Z,10.80
2019-05-20T04:38:39.646Z,11.20
2019-05-20T04:43:31.290Z,10.23
2019-05-20T04:48:22.939Z,11.60
2019-05-20T04:53:13.857Z,10.23
2019-05-20T04:58:04.773Z,10.47
2019-05-20T05:02:55.687Z,10.30
2019-05-20T05:07:47.357Z,10.10
2019-05-20T05:12:38.266Z,10.77
2019-05-20T05:17:29.162Z,11.30
2019-05-20T05:22:20.067Z,12.30
2019-05-20T05:27:11.694Z,11.00
2019-05-20T05:32:02.609Z,10.60
2019-05-20T05:36:53.533Z,11.20
2019-05-20T05:41:45.302Z,11.27
2019-05-20T05:46:36.198Z,11.20
2019-05-20T05:51:27.854Z,10.60
2019-05-20T05:56:18.824Z,10.77
2019-05-20T06:01:09.752Z,10.43
2019-05-20T06:06:11.317Z,10.33
2019-05-20T06:10:52.351Z,10.00
2019-05-20T06:15:43.263Z,10.00
2019-05-20T06:20:34.157Z,11.63
2019-05-20T06:25:25.795Z,11.43
2019-05-20T06:30:16.778Z,11.27
2019-05-20T06:35:07.650Z,11.27
2019-05-20T06:39:58.562Z,11.13
2019-05-20T06:44:52.925Z,11.90
2019-05-20T06:49:41.155Z,12.77
2019-05-20T06:54:32.097Z,11.97
2019-05-20T06:59:23.005Z,12.30
2019-05-20T07:04:13.921Z,12.07
2019-05-20T07:09:04.831Z,11.50
2019-05-20T07:13:55.741Z,9.97
2019-05-20T07:18:46.657Z,10.00
2019-05-20T07:23:37.573Z,11.67
2019-05-20T07:28:28.474Z,10.17
2019-05-20T07:33:19.369Z,10.80
2019-05-20T07:38:10.281Z,9.27
2019-05-20T07:43:01.994Z,10.27
2019-05-20T07:47:53.620Z,9.10
2019-05-20T07:52:44.536Z,10.13
2019-05-20T07:57:35.430Z,9.10
2019-05-20T08:02:26.341Z,9.70
2019-05-20T08:07:27.296Z,9.20
2019-05-20T08:12:08.165Z,8.67
2019-05-20T08:16:59.803Z,7.83
2019-05-20T08:21:51.437Z,8.70
2019-05-20T08:26:43.178Z,8.87
2019-05-20T08:31:34.057Z,8.30
2019-05-20T08:36:24.959Z,8.20
2019-05-20T08:41:16.641Z,7.47
2019-05-20T08:46:08.305Z,7.20
2019-05-20T08:50:59.202Z,7.97
2019-05-20T08:55:50.121Z,7.80
2019-05-20T09:00:41.764Z,7.93
2019-05-20T09:05:32.688Z,7.63
2019-05-20T09:10:23.600Z,7.73
2019-05-20T09:15:14.511Z,7.10
2019-05-20T09:20:06.167Z,7.07
2019-05-20T09:24:57.270Z,6.60
2019-05-20T09:29:48.269Z,7.07
2019-05-20T09:34:39.181Z,6.70
2019-05-20T09:39:30.087Z,6.77
2019-05-20T09:44:21.797Z,7.10
2019-05-20T09:49:12.706Z,6.87
2019-05-20T09:54:03.602Z,6.00
2019-05-20T09:58:55.257Z,5.97
2019-05-20T10:03:46.154Z,7.28
2019-05-20T10:08:44.143Z,6.70
2019-05-20T10:13:28.703Z,5.77
2019-05-20T10:18:36.095Z,6.03
2019-05-20T10:23:15.658Z,6.13
2019-05-20T10:28:02.263Z,6.30
2019-05-20T10:32:53.183Z,5.90
2019-05-20T10:37:44.852Z,5.60
2019-05-20T10:42:35.763Z,5.50
2019-05-20T10:47:26.679Z,6.33
2019-05-20T10:52:17.590Z,5.60
2019-05-20T10:57:09.279Z,5.27
2019-05-20T11:02:00.174Z,5.47
2019-05-20T11:06:51.085Z,5.57
2019-05-20T11:11:42.006Z,4.90
2019-05-20T11:16:32.925Z,5.17
2019-05-20T11:21:23.826Z,5.10
2019-05-20T11:26:15.462Z,5.50
2019-05-20T11:31:07.103Z,5.20
2019-05-20T11:35:57.996Z,4.97
2019-05-20T11:40:48.894Z,5.37
2019-05-20T11:45:39.790Z,4.80
2019-05-20T11:50:30.741Z,5.75
2019-05-20T11:55:21.688Z,4.77
2019-05-20T12:00:13.341Z,4.87
2019-05-20T12:05:04.246Z,5.40
2019-05-20T12:09:55.904Z,5.00
2019-05-20T12:14:46.870Z,5.33
2019-05-20T12:19:37.741Z,5.10
2019-05-20T12:24:28.655Z,4.87
2019-05-20T12:29:20.301Z,5.47
2019-05-20T12:34:11.214Z,5.53
2019-05-20T12:39:02.130Z,5.40
2019-05-20T12:44:10.132Z,4.90
2019-05-20T12:48:44.075Z,5.57
2019-05-20T12:53:35.683Z,5.40
2019-05-20T12:58:26.594Z,5.22
2019-05-20T13:03:18.322Z,5.57
2019-05-20T13:08:10.113Z,5.43
2019-05-20T13:13:01.030Z,5.20
2019-05-20T13:17:51.928Z,5.60
2019-05-20T13:22:42.834Z,5.20
2019-05-20T13:27:33.735Z,5.60
2019-05-20T13:32:25.519Z,5.50
2019-05-20T13:37:16.442Z,5.27
2019-05-20T13:42:07.350Z,6.10
2019-05-20T13:46:58.272Z,6.30
2019-05-20T13:51:49.179Z,5.77
2019-05-20T13:56:40.088Z,5.60
2019-05-20T14:01:31.000Z,5.90
2019-05-20T14:06:21.941Z,5.20
2019-05-20T14:11:12.847Z,6.00
2019-05-20T14:16:03.757Z,5.53
2019-05-20T14:36:52.689Z,5.70
2019-05-20T14:41:40.304Z,5.68
2019-05-20T14:46:31.202Z,6.47
2019-05-20T14:51:22.124Z,6.50
2019-05-20T14:56:13.049Z,6.47
2019-05-20T15:01:03.983Z,6.63
2019-05-20T15:05:54.935Z,6.30
2019-05-20T15:10:45.864Z,6.77
2019-05-20T15:15:37.506Z,6.53
2019-05-20T15:20:29.161Z,6.72
2019-05-20T15:25:20.086Z,5.90
2019-05-20T15:30:11.103Z,6.67
2019-05-20T15:35:02.013Z,7.40
2019-05-20T15:39:53.027Z,7.10
2019-05-20T15:44:43.926Z,6.60
2019-05-20T15:49:34.834Z,7.10
2019-05-20T15:54:25.748Z,6.40
2019-05-20T15:59:16.650Z,6.23
2019-05-20T16:04:07.591Z,5.40
2019-05-20T16:08:58.499Z,5.90
2019-05-20T16:13:49.419Z,6.43
2019-05-20T16:18:40.321Z,5.47
2019-05-20T16:23:31.223Z,6.30
2019-05-20T16:28:22.135Z,5.90
2019-05-20T16:33:13.043Z,5.87
2019-05-20T16:38:03.947Z,5.80
2019-05-20T16:42:55.584Z,4.70
2019-05-20T16:47:47.257Z,5.62
2019-05-20T16:52:38.174Z,6.10
2019-05-20T16:57:29.120Z,5.77
2019-05-20T17:02:20.092Z,5.57
2019-05-20T17:07:11.009Z,5.83
2019-05-20T17:12:01.902Z,5.70
2019-05-20T17:16:53.547Z,5.67
2019-05-20T17:21:45.182Z,5.90
2019-05-20T17:26:36.822Z,6.37
2019-05-20T17:31:30.834Z,6.63
2019-05-20T17:36:19.434Z,7.50
2019-05-20T17:41:10.334Z,8.03
2019-05-20T17:46:01.238Z,8.10
2019-05-20T17:50:52.126Z,8.50
2019-05-20T17:55:43.789Z,8.57
2019-05-20T18:00:34.699Z,8.40
2019-05-20T18:05:25.614Z,8.47
2019-05-20T18:10:16.533Z,8.40
2019-05-20T18:15:07.440Z,7.97
2019-05-20T18:19:59.074Z,7.40
2019-05-20T18:24:50.721Z,7.73
2019-05-20T18:29:41.628Z,7.87
2019-05-20T18:34:33.285Z,7.20
2019-05-20T18:39:24.203Z,8.10
2019-05-20T18:44:15.122Z,7.23
2019-05-20T18:49:06.022Z,7.30
2019-05-20T18:53:57.676Z,7.40
2019-05-20T18:58:48.594Z,7.73
2019-05-20T19:03:39.618Z,8.00
2019-05-20T19:08:31.235Z,7.30
2019-05-20T19:13:22.884Z,6.87
2019-05-20T19:18:13.822Z,7.32
2019-05-20T19:23:04.743Z,7.87
2019-05-20T19:27:55.662Z,8.20
2019-05-20T19:32:46.567Z,7.70
2019-05-20T19:37:37.462Z,7.83
2019-05-20T19:42:29.115Z,7.57
2019-05-20T19:47:20.018Z,7.23
2019-05-20T19:52:11.671Z,8.00
2019-05-20T19:57:02.602Z,8.40
2019-05-20T20:01:53.517Z,8.00
2019-05-20T20:06:44.428Z,7.73
2019-05-20T20:11:35.327Z,8.10
2019-05-20T20:16:26.966Z,7.70
2019-05-20T20:21:18.642Z,7.30
2019-05-20T20:26:09.566Z,7.00
2019-05-20T20:31:00.462Z,7.13
2019-05-20T20:35:51.365Z,7.30
2019-05-20T20:40:42.263Z,7.60
2019-05-20T20:45:33.917Z,5.80
2019-05-20T20:50:24.823Z,6.50
2019-05-20T20:55:16.455Z,7.17
2019-05-20T21:00:08.154Z,6.07
2019-05-20T21:04:59.081Z,6.60
2019-05-20T21:09:50.310Z,6.70
2019-05-20T21:14:41.214Z,6.60
2019-05-20T21:19:32.135Z,6.63
2019-05-20T21:24:23.050Z,6.30
2019-05-20T21:29:13.959Z,6.17
2019-05-20T21:34:04.874Z,5.57
2019-05-20T21:38:55.777Z,6.10
2019-05-20T21:43:46.687Z,6.00
2019-05-20T21:48:37.604Z,6.27
2019-05-20T21:53:28.512Z,6.10
2019-05-20T21:58:20.159Z,5.70
2019-05-20T22:03:23.624Z,6.20
2019-05-20T22:08:04.196Z,6.00
2019-05-20T22:12:53.763Z,5.70
2019-05-20T22:17:44.695Z,6.53
2019-05-20T22:22:37.341Z,5.60
2019-05-20T22:27:28.242Z,5.67
2019-05-20T22:32:19.161Z,5.37
2019-05-20T22:37:10.063Z,5.13
2019-05-20T22:42:01.750Z,5.73
2019-05-20T22:46:52.684Z,5.40
2019-05-20T22:51:43.601Z,5.60
2019-05-20T22:56:34.517Z,5.30
2019-05-20T23:01:25.420Z,5.03
2019-05-20T23:06:16.338Z,5.43
2019-05-20T23:11:07.242Z,5.13
2019-05-20T23:15:58.142Z,5.50
2019-05-20T23:20:49.067Z,5.40
2019-05-20T23:25:39.962Z,5.35
2019-05-20T23:30:31.594Z,4.80
2019-05-20T23:35:23.222Z,4.63
2019-05-20T23:40:14.877Z,5.40
2019-05-20T23:45:05.785Z,5.53
2019-05-20T23:49:57.423Z,4.95
2019-05-20T23:54:49.068Z,5.30
2019-05-20T23:59:39.972Z,5.50
